Time;durP1;ratioP1;P1;durP2;ratioP2;P2;SDS_P1;SDS_P2;PMS_P1;PMS_P2;Temp;Humidity;BMP_temperature;BMP_pressure;BME280_temperature;BME280_humidity;BME280_pressure;Samples;Min_cycle;Max_cycle;Signal;HPM_P1;HPM_P2
2023/01/31 00:01:35;;;;;;;6.60;2.40;;;;;;;1.43;100.00;98336.72;4533753;31;20166;-72
2023/01/31 00:04:10;;;;;;;5.55;2.50;;;;;;;1.41;100.00;98326.47;4533623;31;20183;-72
2023/01/31 00:06:40;;;;;;;8.02;2.87;;;;;;;1.35;100.00;98342.31;4533952;31;20113;-72
2023/01/31 00:09:09;;;;;;;6.60;3.05;;;;;;;1.45;100.00;98340.00;4532363;31;20115;-72
2023/01/31 00:11:36;;;;;;;3.72;2.67;;;;;;;1.37;100.00;98331.91;4517674;31;20118;-73
2023/01/31 00:14:05;;;;;;;7.37;3.00;;;;;;;1.44;100.00;98330.63;4517753;31;20545;-72
2023/01/31 00:16:32;;;;;;;5.65;2.33;;;;;;;1.37;100.00;98329.31;4517564;31;20100;-72
2023/01/31 00:18:59;;;;;;;4.10;2.20;;;;;;;1.33;100.00;98328.69;4517695;31;20398;-73
2023/01/31 00:21:28;;;;;;;3.60;2.03;;;;;;;1.28;100.00;98322.94;4518854;31;20091;-72
2023/01/31 00:23:56;;;;;;;7.37;2.62;;;;;;;1.28;100.00;98322.94;4533700;31;20123;-72
2023/01/31 00:26:31;;;;;;;6.68;2.37;;;;;;;1.28;100.00;98327.28;4533408;31;20099;-73
2023/01/31 00:29:00;;;;;;;4.90;2.40;;;;;;;1.37;100.00;98334.50;4533685;31;20087;-73
2023/01/31 00:31:31;;;;;;;2.70;1.50;;;;;;;1.44;100.00;98334.94;4533541;31;20586;-73
2023/01/31 00:33:58;;;;;;;4.87;2.15;;;;;;;1.54;100.00;98347.22;4533491;31;20079;-72
2023/01/31 00:36:31;;;;;;;3.55;2.00;;;;;;;1.67;100.00;98343.94;4533580;31;20134;-72
2023/01/31 00:39:00;;;;;;;3.47;2.30;;;;;;;1.76;100.00;98364.03;4533386;31;20139;-72
2023/01/31 00:41:29;;;;;;;3.72;1.95;;;;;;;1.83;100.00;98360.13;4533417;31;20158;-73
2023/01/31 00:43:56;;;;;;;4.50;2.53;;;;;;;1.85;100.00;98360.91;4533338;31;20178;-73
2023/01/31 00:46:24;;;;;;;3.92;2.28;;;;;;;1.83;100.00;98352.41;4533368;31;20126;-73
2023/01/31 00:48:51;;;;;;;3.85;2.15;;;;;;;1.95;100.00;98363.75;4533414;31;20114;-72
2023/01/31 00:51:19;;;;;;;3.80;2.03;;;;;;;2.00;100.00;98359.16;4531941;31;20129;-73
2023/01/31 00:53:46;;;;;;;4.45;2.05;;;;;;;1.98;100.00;98354.97;4533501;31;20091;-72
2023/01/31 00:56:16;;;;;;;3.80;1.90;;;;;;;1.98;100.00;98362.75;4533339;31;20099;-72
2023/01/31 00:58:43;;;;;;;3.90;1.73;;;;;;;1.99;100.00;98361.81;4533673;31;20159;-72
2023/01/31 01:01:11;;;;;;;3.92;2.15;;;;;;;2.01;100.00;98370.31;4528255;31;165069;-72
2023/01/31 01:03:39;;;;;;;5.53;1.42;;;;;;;2.03;100.00;98368.44;4532985;31;20092;-72
2023/01/31 01:06:07;;;;;;;4.10;2.12;;;;;;;2.00;100.00;98364.31;4533076;31;20448;-72
2023/01/31 01:08:35;;;;;;;5.07;1.75;;;;;;;2.01;100.00;98370.31;4533230;31;20174;-72
2023/01/31 01:11:26;;;;;;;6.37;1.90;;;;;;;2.02;100.00;98369.37;4519477;31;20099;-72
2023/01/31 01:13:53;;;;;;;2.30;1.45;;;;;;;2.00;100.00;98374.66;4517380;31;20079;-72
2023/01/31 01:16:26;;;;;;;2.55;1.40;;;;;;;1.98;100.00;98363.56;4517004;31;20492;-72
2023/01/31 01:18:54;;;;;;;3.83;1.77;;;;;;;1.95;100.00;98367.19;4517241;31;20414;-72
2023/01/31 01:21:27;;;;;;;4.37;1.70;;;;;;;1.89;100.00;98364.97;4518072;31;20088;-72
2023/01/31 01:23:59;;;;;;;3.85;1.80;;;;;;;1.87;100.00;98359.03;4533144;31;20083;-72
2023/01/31 01:26:31;;;;;;;2.17;1.35;;;;;;;1.86;100.00;98359.97;4533085;31;20515;-72
2023/01/31 01:29:00;;;;;;;3.25;1.85;;;;;;;1.89;100.00;98364.97;4533163;31;20083;-72
2023/01/31 01:31:29;;;;;;;2.22;1.12;;;;;;;1.89;100.00;98364.97;4533176;31;20130;-72
2023/01/31 01:34:15;;;;;;;2.00;1.30;;;;;;;1.95;100.00;98356.84;4533083;31;20475;-72
2023/01/31 01:36:44;;;;;;;2.87;1.30;;;;;;;1.95;100.00;98379.25;4533392;31;20099;-72
2023/01/31 01:39:15;;;;;;;3.87;1.20;;;;;;;1.91;100.00;98365.69;4533142;31;20149;-72
2023/01/31 01:41:43;;;;;;;1.95;1.35;;;;;;;1.98;100.00;98360.16;4533116;31;20121;-72
2023/01/31 01:44:49;;;;;;;5.18;1.33;;;;;;;1.95;100.00;98362.00;4533102;31;20569;-73
2023/01/31 01:47:50;;;;;;;3.70;1.67;;;;;;;1.97;100.00;98379.16;4532796;31;20113;-72
2023/01/31 01:50:28;;;;;;;2.25;1.23;;;;;;;1.90;100.00;98376.94;4482877;32;20849;-72
2023/01/31 01:53:17;;;;;;;4.22;1.40;;;;;;;1.86;100.00;98372.91;4482716;32;20128;-72
2023/01/31 01:55:51;;;;;;;6.95;1.30;;;;;;;1.87;100.00;98374.53;4483094;32;20457;-72
2023/01/31 01:58:22;;;;;;;2.20;1.10;;;;;;;1.84;100.00;98387.63;4470219;32;20128;-72
2023/01/31 02:00:50;;;;;;;4.35;1.58;;;;;;;1.88;100.00;98383.97;4470075;32;20205;-72
2023/01/31 02:03:18;;;;;;;5.22;1.65;;;;;;;1.83;100.00;98380.81;4482623;32;20450;-72
2023/01/31 02:05:49;;;;;;;2.25;1.00;;;;;;;1.82;100.00;98381.75;4482851;32;20114;-72
2023/01/31 02:08:17;;;;;;;4.75;1.20;;;;;;;1.80;100.00;98386.16;4482866;32;20100;-72
2023/01/31 02:11:05;;;;;;;3.00;0.93;;;;;;;1.78;100.00;98385.44;4459779;32;20139;-72
2023/01/31 02:13:33;;;;;;;2.70;1.05;;;;;;;1.90;100.00;98397.59;4454057;32;20164;-72
2023/01/31 02:16:01;;;;;;;2.58;1.20;;;;;;;1.88;100.00;98393.47;4466019;32;20077;-72
2023/01/31 02:18:28;;;;;;;3.45;1.08;;;;;;;1.86;100.00;98388.41;4466949;32;20177;-72
2023/01/31 02:21:16;;;;;;;4.57;1.42;;;;;;;1.82;100.00;98383.47;4467058;32;20120;-72
2023/01/31 02:23:58;;;;;;;2.03;0.73;;;;;;;1.82;100.00;98401.56;4451252;32;20117;-72
2023/01/31 02:26:35;;;;;;;2.10;0.90;;;;;;;1.73;100.00;98405.53;4461918;31;20493;-72
2023/01/31 02:29:21;;;;;;;1.20;1.00;;;;;;;1.75;100.00;98408.84;4516973;31;20100;-72
2023/01/31 02:31:55;;;;;;;2.15;0.90;;;;;;;1.95;100.00;98418.00;4517126;31;20091;-72
2023/01/31 02:34:34;;;;;;;0.98;0.70;;;;;;;2.04;100.00;98406.28;4516805;31;20088;-72
2023/01/31 02:37:21;;;;;;;2.47;1.50;;;;;;;2.11;100.00;98410.16;4516984;31;20393;-72
2023/01/31 02:40:06;;;;;;;4.03;1.08;;;;;;;2.12;100.00;98427.34;4516836;31;20399;-72
2023/01/31 02:42:53;;;;;;;3.92;1.10;;;;;;;2.11;100.00;98397.25;4516940;31;20087;-72
2023/01/31 02:45:28;;;;;;;0.93;0.57;;;;;;;2.11;100.00;98425.66;4502557;31;20148;-72
2023/01/31 02:48:12;;;;;;;1.73;0.77;;;;;;;2.18;100.00;98431.28;4502379;31;20162;-72
2023/01/31 02:50:53;;;;;;;3.80;0.82;;;;;;;2.23;100.00;98430.09;4517026;31;20113;-72
2023/01/31 02:53:26;;;;;;;3.33;1.00;;;;;;;2.26;100.00;98429.09;4516644;31;20088;-72
2023/01/31 02:58:53;;;;;;;3.50;0.73;;;;;;;2.23;100.00;98443.00;4504541;31;20087;-72
2023/01/31 03:01:24;;;;;;;1.77;0.73;;;;;;;2.20;100.00;98444.97;4502110;31;20628;-72
2023/01/31 03:03:51;;;;;;;2.30;1.25;;;;;;;2.22;100.00;98443.09;4516129;31;20156;-72
2023/01/31 03:06:32;;;;;;;3.75;0.68;;;;;;;2.24;100.00;98446.41;4516359;31;20087;-72
2023/01/31 03:09:29;;;;;;;1.10;0.77;;;;;;;2.13;100.00;98447.06;4516374;31;20071;-72
2023/01/31 03:12:02;;;;;;;1.85;0.85;;;;;;;2.23;100.00;98457.69;4516053;31;20096;-72
2023/01/31 03:14:52;;;;;;;5.47;2.22;;;;;;;2.13;100.00;98449.66;4516384;31;20433;-72
2023/01/31 03:17:39;;;;;;;2.80;1.10;;;;;;;1.99;100.00;98452.25;4516377;31;20075;-72
2023/01/31 03:20:11;;;;;;;3.97;1.42;;;;;;;1.98;100.00;98466.06;4516172;31;20083;-72
2023/01/31 03:23:04;;;;;;;7.12;1.02;;;;;;;1.87;100.00;98466.72;4511304;31;20154;-72
2023/01/31 03:25:34;;;;;;;2.05;1.12;;;;;;;1.81;100.00;98462.72;4517630;31;20173;-72
2023/01/31 03:28:05;;;;;;;1.23;0.70;;;;;;;1.77;100.00;98468.97;4518615;31;20608;-72
2023/01/31 03:30:42;;;;;;;1.40;0.60;;;;;;;1.71;100.00;98464.16;4520173;31;20121;-72
2023/01/31 03:33:22;;;;;;;3.42;0.60;;;;;;;1.69;100.00;98466.84;4534018;31;20135;-72
2023/01/31 03:36:09;;;;;;;2.25;1.02;;;;;;;1.71;100.00;98457.28;4519640;31;20103;-72
2023/01/31 03:38:43;;;;;;;2.45;0.85;;;;;;;1.61;100.00;98468.22;4519952;31;20151;-72
2023/01/31 03:41:23;;;;;;;1.17;0.88;;;;;;;1.57;100.00;98472.72;4519903;31;20492;-72
2023/01/31 03:43:57;;;;;;;1.37;0.70;;;;;;;1.57;100.00;98468.37;4520108;31;20117;-72
2023/01/31 03:46:42;;;;;;;3.70;0.90;;;;;;;1.52;100.00;98465.22;4519794;31;20125;-72
2023/01/31 03:49:12;;;;;;;1.65;0.88;;;;;;;1.46;100.00;98473.31;4519367;31;20101;-72
2023/01/31 03:51:46;;;;;;;2.47;1.00;;;;;;;1.45;100.00;98481.97;4519969;31;20102;-72
2023/01/31 03:54:27;;;;;;;1.25;0.55;;;;;;;1.38;100.00;98475.53;4519749;31;20155;-72
2023/01/31 03:56:58;;;;;;;0.77;0.55;;;;;;;1.38;100.00;98467.78;4519562;31;20153;-72
2023/01/31 03:59:30;;;;;;;2.80;1.35;;;;;;;1.39;100.00;98464.25;4534083;31;20086;-72
2023/01/31 04:02:00;;;;;;;1.15;0.50;;;;;;;1.39;100.00;98469.44;4533784;31;20253;-72
2023/01/31 04:04:35;;;;;;;1.67;0.88;;;;;;;1.39;100.00;98470.28;4519280;31;20092;-72
2023/01/31 04:07:04;;;;;;;1.30;0.62;;;;;;;1.42;100.00;98484.75;4519776;31;20103;-72
2023/01/31 04:09:36;;;;;;;5.18;0.73;;;;;;;1.36;100.00;98482.50;4531169;31;20488;-72
2023/01/31 04:12:04;;;;;;;2.53;1.10;;;;;;;1.35;100.00;98486.03;4517575;31;20628;-72
2023/01/31 04:14:31;;;;;;;1.30;0.82;;;;;;;1.38;100.00;98497.00;4517946;31;20096;-72
2023/01/31 04:16:58;;;;;;;4.20;0.85;;;;;;;1.37;100.00;98499.66;4517429;31;20163;-72
2023/01/31 04:19:26;;;;;;;0.93;0.50;;;;;;;1.43;100.00;98499.31;4517958;31;20075;-72
2023/01/31 04:21:53;;;;;;;3.85;1.37;;;;;;;1.48;100.00;98502.47;4521880;31;20123;-72
2023/01/31 04:24:20;;;;;;;2.40;1.20;;;;;;;1.50;100.00;98525.59;4533554;31;20150;-72
2023/01/31 04:26:47;;;;;;;4.47;1.33;;;;;;;1.51;100.00;98498.87;4533486;31;20154;-72
2023/01/31 04:29:15;;;;;;;3.15;0.98;;;;;;;1.44;100.00;98507.87;4532332;31;20083;-72
2023/01/31 04:31:42;;;;;;;2.65;0.95;;;;;;;1.49;100.00;98513.63;4533588;31;20118;-72
2023/01/31 04:34:09;;;;;;;1.23;0.50;;;;;;;1.45;100.00;98515.53;4533994;31;20561;-72
2023/01/31 04:36:37;;;;;;;2.42;0.82;;;;;;;1.57;100.00;98519.19;4533629;31;20071;-72
2023/01/31 04:39:05;;;;;;;4.32;1.00;;;;;;;1.67;100.00;98527.25;4532771;31;20190;-72
2023/01/31 04:41:32;;;;;;;1.58;0.65;;;;;;;1.74;100.00;98526.81;4533601;31;20096;-72
2023/01/31 04:43:59;;;;;;;1.50;0.88;;;;;;;1.69;100.00;98521.06;4533300;31;20103;-72
2023/01/31 04:46:27;;;;;;;1.30;0.50;;;;;;;1.73;100.00;98545.81;4533385;31;20099;-72
2023/01/31 04:48:54;;;;;;;4.95;0.50;;;;;;;1.77;100.00;98539.56;4533565;31;20087;-72
2023/01/31 04:51:21;;;;;;;1.35;0.43;;;;;;;1.70;100.00;98540.00;4532248;31;20075;-72
2023/01/31 04:53:48;;;;;;;1.48;0.70;;;;;;;1.47;100.00;98543.84;4533547;31;20143;-72
2023/01/31 04:56:15;;;;;;;0.95;0.57;;;;;;;1.37;100.00;98540.97;4533393;31;20414;-71
2023/01/31 04:58:43;;;;;;;1.23;0.60;;;;;;;1.32;100.00;98537.81;4533458;31;20142;-71
2023/01/31 05:01:10;;;;;;;3.00;0.40;;;;;;;1.39;100.00;98515.88;4532058;31;20091;-71
2023/01/31 05:03:37;;;;;;;2.37;1.02;;;;;;;1.33;100.00;98531.72;4533460;31;20159;-71
2023/01/31 05:06:05;;;;;;;1.15;0.45;;;;;;;1.26;100.00;98527.78;4533089;31;20142;-71
2023/01/31 05:08:33;;;;;;;3.45;1.02;;;;;;;1.27;100.00;98532.06;4531939;31;20154;-71
2023/01/31 05:11:01;;;;;;;1.50;0.90;;;;;;;1.19;100.00;98543.63;4525897;31;20096;-71
2023/01/31 05:13:31;;;;;;;1.95;0.80;;;;;;;1.15;100.00;98538.72;4517279;31;20100;-71
2023/01/31 05:15:59;;;;;;;3.17;0.82;;;;;;;1.05;100.00;98534.06;4516916;31;20121;-71
2023/01/31 05:18:26;;;;;;;1.30;0.98;;;;;;;1.08;100.00;98534.81;4525135;31;20169;-71
2023/01/31 05:20:53;;;;;;;1.10;0.82;;;;;;;0.91;100.00;98533.12;4505010;31;20564;-71
2023/01/31 05:23:21;;;;;;;1.75;0.88;;;;;;;0.91;100.00;98546.88;4533070;31;20158;-71
2023/01/31 05:25:49;;;;;;;2.42;0.93;;;;;;;0.87;100.00;98553.91;4519929;31;20441;-72
2023/01/31 05:28:16;;;;;;;1.12;0.73;;;;;;;0.92;100.00;98558.84;4517449;31;20595;-72
2023/01/31 05:30:44;;;;;;;2.40;0.98;;;;;;;0.99;100.00;98560.19;4525831;31;20523;-72
2023/01/31 05:33:12;;;;;;;2.10;1.25;;;;;;;0.97;100.00;98561.16;4517170;31;20176;-72
2023/01/31 05:35:40;;;;;;;2.30;0.70;;;;;;;0.99;100.00;98556.78;4517141;31;20121;-72
2023/01/31 05:38:08;;;;;;;1.27;0.93;;;;;;;1.04;100.00;98567.66;4517139;31;20102;-72
2023/01/31 05:40:35;;;;;;;7.43;1.30;;;;;;;1.04;100.00;98554.78;4518441;31;20095;-72
2023/01/31 05:43:03;;;;;;;5.22;0.80;;;;;;;1.04;100.00;98552.19;4522856;31;20100;-72
2023/01/31 05:45:30;;;;;;;1.17;0.60;;;;;;;1.09;100.00;98554.53;4523222;31;20095;-72
2023/01/31 05:47:58;;;;;;;1.87;0.85;;;;;;;1.03;100.00;98553.94;4523189;31;20491;-72
2023/01/31 05:50:26;;;;;;;1.85;0.93;;;;;;;0.99;100.00;98562.75;4533328;31;20102;-72
2023/01/31 05:52:57;;;;;;;1.52;0.65;;;;;;;0.95;100.00;98563.81;4536416;31;20100;-73
2023/01/31 05:55:25;;;;;;;2.70;1.08;;;;;;;0.92;100.00;98570.91;4544982;31;20094;-72
2023/01/31 05:57:53;;;;;;;3.20;0.88;;;;;;;0.98;100.00;98573.97;4516406;31;20134;-72
2023/01/31 06:00:21;;;;;;;2.35;0.77;;;;;;;0.98;100.00;98568.81;4524082;31;20115;-72
2023/01/31 06:02:49;;;;;;;4.45;1.00;;;;;;;0.93;100.00;98563.09;4523219;31;20096;-72
2023/01/31 06:05:16;;;;;;;4.55;1.42;;;;;;;0.94;100.00;98579.38;4515638;31;20087;-72
2023/01/31 06:07:43;;;;;;;1.92;0.90;;;;;;;0.91;100.00;98587.28;4515230;31;20119;-72
2023/01/31 06:10:11;;;;;;;8.02;1.20;;;;;;;0.93;100.00;98588.88;4518497;31;20107;-72
2023/01/31 06:12:39;;;;;;;3.90;1.00;;;;;;;1.02;100.00;98579.81;4522695;31;20152;-72
2023/01/31 06:15:06;;;;;;;1.75;0.75;;;;;;;1.03;100.00;98595.22;4529830;31;20099;-72
2023/01/31 06:17:34;;;;;;;5.28;1.55;;;;;;;1.07;100.00;98603.63;4523920;31;20154;-72
2023/01/31 06:20:01;;;;;;;1.85;0.90;;;;;;;1.09;100.00;98598.37;4530041;31;20521;-72
2023/01/31 06:22:28;;;;;;;1.70;0.90;;;;;;;1.17;100.00;98607.38;4517391;31;20104;-72
2023/01/31 06:24:56;;;;;;;2.67;0.68;;;;;;;1.16;100.00;98612.63;4517922;31;20107;-72
2023/01/31 06:27:24;;;;;;;1.55;1.00;;;;;;;1.19;100.00;98627.94;4526890;31;20099;-72
2023/01/31 06:29:51;;;;;;;1.20;0.73;;;;;;;1.16;100.00;98628.94;4522965;31;20486;-73
2023/01/31 06:32:19;;;;;;;1.35;0.73;;;;;;;1.14;100.00;98642.84;4526496;31;20627;-72
2023/01/31 06:34:46;;;;;;;4.45;0.95;;;;;;;1.21;100.00;98645.00;4512575;31;20138;-72
2023/01/31 06:37:13;;;;;;;3.37;0.75;;;;;;;1.21;100.00;98645.00;4512916;31;20167;-69
2023/01/31 06:39:40;;;;;;;7.65;1.37;;;;;;;1.22;100.00;98643.25;4518614;31;20103;-71
2023/01/31 06:42:07;;;;;;;3.53;0.77;;;;;;;1.33;100.00;98659.03;4518761;31;20095;-71
2023/01/31 06:44:36;;;;;;;1.55;1.00;;;;;;;1.37;100.00;98647.59;4503412;31;20111;-71
2023/01/31 06:47:04;;;;;;;5.20;0.80;;;;;;;1.39;100.00;98653.53;4516779;31;20460;-71
2023/01/31 06:49:31;;;;;;;1.08;0.57;;;;;;;1.34;100.00;98662.44;4528276;31;20388;-71
2023/01/31 06:51:58;;;;;;;4.72;1.10;;;;;;;1.41;100.00;98674.09;4524597;31;20464;-71
2023/01/31 06:54:26;;;;;;;2.83;1.10;;;;;;;1.47;100.00;98678.94;4515694;31;20150;-71
2023/01/31 06:56:53;;;;;;;5.20;1.50;;;;;;;1.54;100.00;98680.25;4514576;31;20141;-71
2023/01/31 06:59:20;;;;;;;8.18;2.28;;;;;;;1.53;100.00;98691.50;4515943;31;20115;-71
2023/01/31 07:01:48;;;;;;;6.50;0.98;;;;;;;1.65;100.00;98697.78;4522452;31;20148;-71
2023/01/31 07:04:15;;;;;;;4.50;1.02;;;;;;;1.72;100.00;98701.66;4513745;31;20949;-71
2023/01/31 07:06:42;;;;;;;4.28;1.20;;;;;;;1.88;100.00;98712.00;4514811;31;20182;-71
2023/01/31 07:09:10;;;;;;;3.78;1.33;;;;;;;1.95;100.00;98707.31;4510634;31;20668;-71
2023/01/31 07:11:38;;;;;;;0.62;0.35;;;;;;;2.12;100.00;98709.81;4512853;31;20582;-71
2023/01/31 07:14:05;;;;;;;4.25;1.30;;;;;;;2.12;100.00;98704.66;4517476;31;20179;-71
2023/01/31 07:16:32;;;;;;;10.65;1.15;;;;;;;2.19;100.00;98715.47;4521657;31;20537;-72
2023/01/31 07:18:59;;;;;;;8.65;0.62;;;;;;;2.43;100.00;98720.19;4513248;31;20147;-71
2023/01/31 07:21:28;;;;;;;1.60;0.70;;;;;;;2.47;100.00;98730.28;4513926;31;20108;-71
2023/01/31 07:23:56;;;;;;;1.75;0.88;;;;;;;2.45;100.00;98723.50;4518027;31;20121;-72
2023/01/31 07:26:23;;;;;;;0.80;0.60;;;;;;;2.48;100.00;98725.94;4515715;31;20134;-72
2023/01/31 07:28:51;;;;;;;2.30;0.60;;;;;;;2.57;100.00;98725.41;4514524;31;20102;-72
2023/01/31 07:31:19;;;;;;;2.95;0.45;;;;;;;2.71;100.00;98726.38;4514009;31;20134;-72
2023/01/31 07:33:47;;;;;;;2.47;1.00;;;;;;;2.79;100.00;98727.59;4516095;31;20448;-68
2023/01/31 07:36:15;;;;;;;1.90;0.93;;;;;;;2.91;100.00;98733.81;4505620;31;20111;-71
2023/01/31 07:38:42;;;;;;;1.83;0.60;;;;;;;2.96;100.00;98734.38;4519861;31;20130;-71
2023/01/31 07:41:10;;;;;;;3.42;1.08;;;;;;;2.94;100.00;98741.41;4516152;31;20449;-72
2023/01/31 07:43:37;;;;;;;1.37;0.55;;;;;;;2.89;100.00;98729.63;4520551;31;20117;-72
2023/01/31 07:46:10;;;;;;;2.97;0.85;;;;;;;2.75;100.00;98736.44;4518275;31;20112;-72
2023/01/31 07:48:37;;;;;;;3.03;0.80;;;;;;;2.84;100.00;98740.25;4518894;31;20079;-74
2023/01/31 07:51:05;;;;;;;1.50;0.73;;;;;;;2.83;100.00;98746.34;4519490;31;20161;-72
2023/01/31 07:53:35;;;;;;;3.70;0.85;;;;;;;2.81;100.00;98748.19;4521247;31;20514;-73
2023/01/31 07:56:11;;;;;;;2.10;0.93;;;;;;;2.97;100.00;98751.56;4518131;31;20130;-74
2023/01/31 07:58:40;;;;;;;3.65;0.80;;;;;;;2.92;100.00;98747.56;4514837;31;20155;-74
2023/01/31 08:04:00;;;;;;;5.78;1.00;;;;;;;3.07;100.00;98753.59;4524804;31;20095;-74
2023/01/31 08:06:47;;;;;;;1.33;1.08;;;;;;;3.31;100.00;98762.50;4526381;31;20143;-74
2023/01/31 08:09:14;;;;;;;2.10;0.68;;;;;;;3.32;100.00;98764.19;4504806;31;20105;-74
2023/01/31 08:11:42;;;;;;;3.50;1.00;;;;;;;3.44;100.00;98761.78;4524746;31;20164;-73
2023/01/31 08:14:09;;;;;;;2.95;1.17;;;;;;;3.33;100.00;98760.69;4518972;31;20107;-73
2023/01/31 08:16:37;;;;;;;2.22;0.73;;;;;;;3.30;100.00;98766.03;4521048;31;20724;-74
2023/01/31 08:19:04;;;;;;;3.45;1.75;;;;;;;3.25;100.00;98768.06;4522477;31;20562;-73
2023/01/31 08:21:31;;;;;;;3.10;1.15;;;;;;;3.19;100.00;98771.00;4522255;31;20104;-73
2023/01/31 08:23:59;;;;;;;2.90;0.95;;;;;;;3.07;100.00;98761.38;4517381;31;20980;-73
2023/01/31 08:26:26;;;;;;;2.47;0.85;;;;;;;2.99;100.00;98767.00;4531670;31;20091;-71
2023/01/31 08:28:53;;;;;;;2.20;0.70;;;;;;;3.08;100.00;98782.00;4525007;31;20884;-74
2023/01/31 08:31:24;;;;;;;4.12;1.10;;;;;;;3.27;100.00;98794.69;4525460;31;20126;-73
2023/01/31 08:33:52;;;;;;;2.47;0.93;;;;;;;3.29;100.00;98799.78;4514755;31;20113;-73
2023/01/31 08:36:24;;;;;;;2.25;1.37;;;;;;;3.30;100.00;98799.69;4524359;31;20134;-74
2023/01/31 08:38:52;;;;;;;3.22;1.30;;;;;;;3.53;100.00;98815.62;4526008;31;20129;-73
2023/01/31 08:41:24;;;;;;;2.90;1.08;;;;;;;3.59;100.00;98807.50;4520390;31;20151;-73
2023/01/31 08:43:51;;;;;;;3.28;1.50;;;;;;;3.58;100.00;98818.78;4515109;31;20133;-72
2023/01/31 08:46:25;;;;;;;5.43;1.37;;;;;;;3.47;100.00;98814.22;4513457;31;20676;-73
2023/01/31 08:48:53;;;;;;;5.65;1.00;;;;;;;3.61;100.00;98825.53;4517748;31;20940;-72
2023/01/31 08:51:20;;;;;;;4.60;1.40;;;;;;;3.76;100.00;98834.16;4516000;31;20108;-70
2023/01/31 08:53:48;;;;;;;3.10;0.50;;;;;;;3.72;100.00;98838.66;4518124;31;21109;-72
2023/01/31 08:56:15;;;;;;;3.00;0.95;;;;;;;3.78;100.00;98837.47;4510617;31;20099;-71
2023/01/31 08:58:43;;;;;;;4.05;0.98;;;;;;;3.78;100.00;98834.87;4516229;31;20258;-71
2023/01/31 09:01:16;;;;;;;2.33;0.95;;;;;;;3.79;100.00;98839.16;4515814;31;20179;-71
2023/01/31 09:03:44;;;;;;;4.53;0.90;;;;;;;3.68;100.00;98850.97;4513710;31;20434;-70
2023/01/31 09:06:22;;;;;;;5.90;0.70;;;;;;;3.54;100.00;98846.62;4514503;31;20179;-71
2023/01/31 09:08:50;;;;;;;2.15;0.70;;;;;;;3.77;100.00;98843.56;4517482;31;22083;-70
2023/01/31 09:11:20;;;;;;;0.95;0.65;;;;;;;3.77;100.00;98846.16;4520326;31;20108;-70
2023/01/31 09:13:50;;;;;;;3.65;0.90;;;;;;;4.02;100.00;98856.72;4516740;31;20158;-72
2023/01/31 09:16:18;;;;;;;1.75;0.50;;;;;;;4.22;100.00;98854.66;4515904;31;20428;-71
2023/01/31 09:18:46;;;;;;;2.40;0.60;;;;;;;4.17;100.00;98851.53;4506013;31;20714;-71
2023/01/31 09:21:18;;;;;;;2.10;0.60;;;;;;;4.12;100.00;98869.09;4515851;31;20139;-72
2023/01/31 09:23:47;;;;;;;3.00;0.80;;;;;;;4.04;100.00;98847.09;4521436;31;20182;-71
2023/01/31 09:26:15;;;;;;;4.72;1.15;;;;;;;4.06;100.00;98855.59;4526173;31;20493;-70
2023/01/31 09:28:42;;;;;;;1.87;0.50;;;;;;;4.02;100.00;98861.06;4532031;31;20091;-75
2023/01/31 09:31:13;;;;;;;1.70;0.57;;;;;;;3.91;100.00;98857.37;4530044;31;20112;-72
2023/01/31 09:33:40;;;;;;;5.00;0.95;;;;;;;4.00;100.00;98858.56;4526708;31;20181;-71
2023/01/31 09:36:09;;;;;;;1.35;0.50;;;;;;;3.99;100.00;98856.06;4522206;31;20845;-71
2023/01/31 09:38:36;;;;;;;4.68;0.80;;;;;;;4.05;100.00;98869.47;4514319;31;20159;-73
2023/01/31 09:41:13;;;;;;;1.87;0.60;;;;;;;4.01;100.00;98873.22;4520287;31;20486;-72
2023/01/31 09:43:44;;;;;;;2.05;0.70;;;;;;;4.03;100.00;98865.34;4515381;31;20140;-72
2023/01/31 09:46:15;;;;;;;1.20;0.62;;;;;;;4.07;100.00;98867.66;4523596;31;20118;-72
2023/01/31 09:48:46;;;;;;;5.47;1.35;;;;;;;4.42;100.00;98858.59;4514906;31;20109;-73
2023/01/31 09:51:15;;;;;;;1.33;0.50;;;;;;;4.33;100.00;98866.94;4500408;31;20425;-72
2023/01/31 09:53:43;;;;;;;1.08;0.65;;;;;;;4.34;100.00;98853.88;4515325;31;21189;-72
2023/01/31 09:56:21;;;;;;;1.20;0.90;;;;;;;4.53;100.00;98850.16;4516259;31;20091;-72
2023/01/31 09:59:02;;;;;;;1.48;0.68;;;;;;;4.43;100.00;98844.72;4520026;31;20087;-72
2023/01/31 10:01:38;;;;;;;2.53;0.77;;;;;;;4.31;100.00;98859.25;4511411;31;20119;-72
2023/01/31 10:04:18;;;;;;;4.28;0.93;;;;;;;4.16;100.00;98852.44;4526141;31;20634;-72
2023/01/31 10:07:00;;;;;;;3.03;0.75;;;;;;;4.41;100.00;98880.28;4522009;31;20991;-72
2023/01/31 10:09:35;;;;;;;2.90;0.70;;;;;;;4.42;97.16;98853.41;4521765;31;20146;-72
2023/01/31 10:12:14;;;;;;;4.82;0.75;;;;;;;4.22;95.71;98868.47;4504772;31;20092;-73
2023/01/31 10:14:49;;;;;;;1.73;1.00;;;;;;;4.24;95.27;98840.69;4521366;31;20099;-72
2023/01/31 10:17:25;;;;;;;4.53;0.85;;;;;;;4.38;94.54;98847.59;4502915;31;20095;-73
2023/01/31 10:20:00;;;;;;;1.83;0.60;;;;;;;4.42;91.92;98854.25;4503328;31;20084;-73
2023/01/31 10:22:41;;;;;;;7.03;1.00;;;;;;;4.42;94.41;98837.84;4503782;31;20103;-72
2023/01/31 10:25:25;;;;;;;5.53;0.95;;;;;;;4.33;93.07;98844.47;4509888;31;20562;-73
2023/01/31 10:28:15;;;;;;;8.10;0.98;;;;;;;4.65;92.93;98849.38;4505206;31;20147;-74
2023/01/31 10:31:00;;;;;;;2.35;0.90;;;;;;;4.42;91.78;98841.28;4505471;31;20199;-74
2023/01/31 10:33:37;;;;;;;1.60;0.55;;;;;;;4.36;91.00;98840.81;4515595;31;20109;-74
2023/01/31 10:36:13;;;;;;;5.72;0.90;;;;;;;4.19;90.98;98828.91;4505186;31;20104;-74
2023/01/31 10:39:01;;;;;;;0.40;0.40;;;;;;;4.16;89.72;98811.78;4504351;31;20121;-74
2023/01/31 10:42:01;;;;;;;4.28;0.98;;;;;;;4.23;90.46;98812.25;4519754;31;20441;-74
2023/01/31 10:45:05;;;;;;;2.97;0.68;;;;;;;4.55;90.61;98817.16;4520230;31;20124;-73
2023/01/31 10:47:45;;;;;;;1.12;0.52;;;;;;;4.52;91.21;98828.56;4524085;31;20095;-72
2023/01/31 10:50:16;;;;;;;2.00;0.75;;;;;;;4.70;90.16;98825.72;4510658;31;20130;-73
2023/01/31 10:53:11;;;;;;;1.58;0.57;;;;;;;5.00;89.73;98824.66;4525750;31;20112;-73
2023/01/31 10:56:25;;;;;;;1.77;0.57;;;;;;;4.83;90.74;98813.63;4498464;31;20103;-75
2023/01/31 10:58:52;;;;;;;0.30;0.30;;;;;;;4.74;92.58;98817.66;4493247;31;20169;-74
2023/01/31 11:01:20;;;;;;;2.05;0.50;;;;;;;5.17;91.43;98823.56;4518591;31;20154;-73
2023/01/31 11:03:49;;;;;;;1.67;0.95;;;;;;;5.12;92.13;98819.50;4518646;31;20114;-71
2023/01/31 11:06:17;;;;;;;1.00;0.70;;;;;;;5.16;90.17;98838.31;4518781;31;20121;-70
2023/01/31 11:08:47;;;;;;;1.98;0.60;;;;;;;4.86;92.03;98820.37;4524760;31;20095;-74
2023/01/31 11:11:17;;;;;;;0.80;0.50;;;;;;;5.09;91.10;98805.91;4520401;31;20099;-73
2023/01/31 11:13:58;;;;;;;4.15;0.90;;;;;;;5.03;89.70;98820.13;4520242;31;20083;-74
2023/01/31 11:16:36;;;;;;;1.52;0.50;;;;;;;5.14;86.39;98815.03;4521061;31;20159;-73
2023/01/31 11:19:28;;;;;;;2.42;0.40;;;;;;;5.27;85.69;98806.44;4511380;31;20170;-73
2023/01/31 11:21:55;;;;;;;9.50;1.10;;;;;;;5.25;85.28;98823.88;4499803;31;20815;-75
2023/01/31 11:24:25;;;;;;;1.95;0.82;;;;;;;4.75;84.62;98821.06;4514748;31;20087;-75
2023/01/31 11:26:54;;;;;;;2.17;0.77;;;;;;;4.54;84.61;98834.50;4499278;31;20118;-73
2023/01/31 11:29:31;;;;;;;0.80;0.35;;;;;;;4.71;82.29;98815.25;4502710;31;20123;-74
2023/01/31 11:32:03;;;;;;;4.28;1.40;;;;;;;4.61;81.86;98816.78;4517035;31;20174;-72
2023/01/31 11:34:30;;;;;;;1.70;0.77;;;;;;;4.42;84.67;98833.50;4520062;31;20099;-73
2023/01/31 11:37:22;;;;;;;2.22;0.90;;;;;;;4.62;85.54;98831.41;4519204;31;20476;-75
2023/01/31 11:40:21;;;;;;;3.08;0.70;;;;;;;4.55;85.00;98827.53;4514945;31;20788;-73
2023/01/31 11:42:54;;;;;;;3.85;0.90;;;;;;;4.68;84.89;98850.94;4512588;31;20167;-73
2023/01/31 11:45:27;;;;;;;7.82;0.70;;;;;;;4.91;84.98;98819.16;4518972;31;20121;-74
2023/01/31 11:47:57;;;;;;;5.40;0.60;;;;;;;5.01;81.67;98822.00;4500667;31;20631;-72
2023/01/31 11:50:34;;;;;;;1.75;0.80;;;;;;;5.10;82.35;98820.53;4529200;31;20111;-71
2023/01/31 11:53:12;;;;;;;2.50;0.80;;;;;;;5.11;80.72;98810.03;4516403;31;20400;-72
2023/01/31 11:55:41;;;;;;;3.10;0.93;;;;;;;5.26;80.11;98812.56;4532843;31;20087;-73
2023/01/31 11:58:21;;;;;;;5.80;0.90;;;;;;;5.25;79.51;98810.91;4522957;31;20790;-71
2023/01/31 12:00:54;;;;;;;3.03;1.62;;;;;;;5.08;80.06;98807.66;4521562;31;20083;-71
2023/01/31 12:03:22;;;;;;;5.07;2.12;;;;;;;4.91;80.99;98818.31;4519357;31;20878;-72